Terminal Aerodrome Forecast
Issued by NWS Knoxville/Tri Cities, TN

Home | Current Version | Previous Version | Text Only | Print | Product List | Glossary On
Versions: 1 2 3 4 5 6 7 8 9 10 11 12 13 14
000
FTUS44 KMRX 010539
TAFCHA
TAF
KCHA 010539Z 0106/0206 32012G22KT P6SM -SNRA BKN025
     FM011200 33015G25KT P6SM OVC025
     FM012000 34015KT P6SM BKN030
     FM020000 36008KT P6SM BKN025
     FM020300 35005KT P6SM SKC=

USA.gov is the U.S. government's official web portal to all federal, state and local government web resources and services.